createdAt,value
2017-06-24T00:00:43.649Z,0
2017-06-24T00:01:55.883Z,0
2017-06-24T00:03:08.114Z,0
2017-06-24T00:04:20.665Z,0
2017-06-24T00:05:33.183Z,0
2017-06-24T00:06:45.717Z,0
2017-06-24T00:07:58.250Z,0
2017-06-24T00:09:10.768Z,0
2017-06-24T00:10:22.987Z,0
2017-06-24T00:11:35.536Z,0
2017-06-24T00:12:48.080Z,0
2017-06-24T00:14:00.276Z,0
2017-06-24T00:15:12.771Z,0
2017-06-24T00:16:25.291Z,0
2017-06-24T00:17:37.531Z,0
2017-06-24T00:18:49.789Z,0
2017-06-24T00:20:02.006Z,0
2017-06-24T00:21:14.522Z,0
2017-06-24T00:22:26.747Z,0
2017-06-24T00:23:39.272Z,0
2017-06-24T00:24:51.814Z,0
2017-06-24T00:26:04.360Z,0
2017-06-24T00:27:16.875Z,0
2017-06-24T00:28:29.401Z,0
2017-06-24T00:29:41.640Z,0
2017-06-24T00:30:54.196Z,0
2017-06-24T00:32:06.739Z,0
2017-06-24T00:33:18.939Z,0
2017-06-24T00:34:31.480Z,0
2017-06-24T00:35:44.022Z,0
2017-06-24T00:36:56.565Z,0
2017-06-24T00:38:08.819Z,0
2017-06-24T00:39:21.057Z,0
2017-06-24T00:40:33.306Z,0
2017-06-24T00:41:45.848Z,0
2017-06-24T00:42:58.394Z,0
2017-06-24T00:44:10.627Z,0
2017-06-24T00:45:22.565Z,0
2017-06-24T00:46:35.095Z,0
2017-06-24T00:47:47.329Z,0
2017-06-24T00:48:59.849Z,0
2017-06-24T00:50:12.384Z,0
2017-06-24T00:51:24.616Z,0
2017-06-24T00:52:36.865Z,0
2017-06-24T00:53:49.443Z,0
2017-06-24T00:55:01.966Z,0
2017-06-24T00:56:14.513Z,0
2017-06-24T00:57:27.032Z,0
2017-06-24T00:58:38.682Z,0
2017-06-24T00:59:50.900Z,0
2017-06-24T01:01:03.137Z,0
2017-06-24T01:02:15.665Z,0
2017-06-24T01:03:27.587Z,0
2017-06-24T01:04:40.087Z,0
2017-06-24T01:05:52.621Z,0
2017-06-24T01:07:04.873Z,0
2017-06-24T01:08:17.421Z,0
2017-06-24T01:09:29.666Z,0
2017-06-24T01:10:42.202Z,0
2017-06-24T01:11:54.733Z,0
2017-06-24T01:13:07.267Z,0
2017-06-24T01:14:19.796Z,0
2017-06-24T01:15:32.635Z,0
2017-06-24T01:16:45.173Z,0
2017-06-24T01:17:57.701Z,0
2017-06-24T01:19:09.958Z,0
2017-06-24T01:20:22.451Z,0
2017-06-24T01:21:34.978Z,0
2017-06-24T01:22:47.517Z,0
2017-06-24T01:23:59.756Z,0
2017-06-24T01:25:12.009Z,0
2017-06-24T01:26:24.549Z,0
2017-06-24T01:27:37.103Z,0
2017-06-24T01:28:49.328Z,0
2017-06-24T01:30:01.235Z,0
2017-06-24T01:31:13.767Z,0
2017-06-24T01:32:26.331Z,0
2017-06-24T01:33:38.856Z,0
2017-06-24T01:34:51.361Z,0
2017-06-24T01:36:03.873Z,0
2017-06-24T01:37:16.344Z,0
2017-06-24T01:38:28.865Z,0
2017-06-24T01:39:41.410Z,0
2017-06-24T01:40:53.937Z,0
2017-06-24T01:42:06.481Z,0
2017-06-24T01:43:19.040Z,0
2017-06-24T01:44:31.569Z,0
2017-06-24T01:45:44.083Z,0
2017-06-24T01:46:56.336Z,0
2017-06-24T01:48:08.557Z,0
2017-06-24T01:49:20.808Z,0
2017-06-24T01:50:33.394Z,0
2017-06-24T01:51:45.919Z,0
2017-06-24T01:52:58.446Z,0
2017-06-24T01:54:10.980Z,0
2017-06-24T01:55:23.503Z,0
2017-06-24T01:56:36.029Z,0
2017-06-24T01:57:48.581Z,0
2017-06-24T01:59:01.442Z,0
2017-06-24T02:00:13.650Z,0
2017-06-24T02:01:26.187Z,0
2017-06-24T02:02:38.408Z,4
2017-06-24T02:03:50.021Z,4
2017-06-24T02:05:02.258Z,4
2017-06-24T02:06:14.788Z,0
2017-06-24T02:07:27.322Z,4
2017-06-24T02:08:39.818Z,4
2017-06-24T02:09:52.339Z,4
2017-06-24T02:11:04.554Z,8
2017-06-24T02:12:16.750Z,4
2017-06-24T02:13:29.252Z,8
2017-06-24T02:14:41.767Z,8
2017-06-24T02:15:54.269Z,12
2017-06-24T02:17:06.484Z,12
2017-06-24T02:18:19.013Z,12
2017-06-24T02:19:31.568Z,16
2017-06-24T02:20:44.373Z,16
2017-06-24T02:21:56.896Z,16
2017-06-24T02:23:09.418Z,20
2017-06-24T02:24:21.659Z,24
2017-06-24T02:25:34.172Z,28
2017-06-24T02:26:46.719Z,32
2017-06-24T02:27:59.224Z,32
2017-06-24T02:29:11.464Z,32
2017-06-24T02:30:23.996Z,32
2017-06-24T02:31:36.489Z,40
2017-06-24T02:32:49.027Z,44
2017-06-24T02:34:01.530Z,48
2017-06-24T02:35:14.071Z,52
2017-06-24T02:36:26.311Z,56
2017-06-24T02:37:38.557Z,60
2017-06-24T02:38:50.777Z,68
2017-06-24T02:40:03.006Z,72
2017-06-24T02:41:15.232Z,80
2017-06-24T02:42:27.768Z,88
2017-06-24T02:43:40.290Z,96
2017-06-24T02:44:52.857Z,108
2017-06-24T02:46:05.414Z,116
2017-06-24T02:47:17.983Z,132
2017-06-24T02:48:30.519Z,144
2017-06-24T02:49:42.751Z,152
2017-06-24T02:50:55.295Z,160
2017-06-24T02:52:07.861Z,160
2017-06-24T02:53:19.744Z,164
2017-06-24T02:54:32.290Z,184
2017-06-24T02:55:44.828Z,192
2017-06-24T02:56:57.344Z,188
2017-06-24T02:58:09.887Z,188
2017-06-24T02:59:22.394Z,196
2017-06-24T03:00:34.939Z,196
2017-06-24T03:01:47.482Z,200
2017-06-24T03:03:00.025Z,220
2017-06-24T03:04:12.551Z,240
2017-06-24T03:05:25.095Z,252
2017-06-24T03:06:37.320Z,252
2017-06-24T03:07:49.861Z,244
2017-06-24T03:09:02.400Z,240
2017-06-24T03:10:14.933Z,240
2017-06-24T03:11:26.875Z,244
2017-06-24T03:12:39.396Z,244
2017-06-24T03:13:51.944Z,248
2017-06-24T03:15:04.183Z,252
2017-06-24T03:16:16.737Z,260
2017-06-24T03:17:29.279Z,288
2017-06-24T03:18:41.803Z,320
2017-06-24T03:19:54.021Z,332
2017-06-24T03:21:06.542Z,352
2017-06-24T03:22:19.069Z,380
2017-06-24T03:23:31.604Z,412
2017-06-24T03:24:43.813Z,452
2017-06-24T03:25:56.651Z,524
2017-06-24T03:27:09.189Z,576
2017-06-24T03:28:21.695Z,588
2017-06-24T03:29:34.243Z,592
2017-06-24T03:30:46.784Z,656
2017-06-24T03:31:59.552Z,752
2017-06-24T03:33:12.094Z,928
2017-06-24T03:34:24.650Z,1064
2017-06-24T03:35:37.188Z,1120
2017-06-24T03:36:49.414Z,1140
2017-06-24T03:38:01.913Z,1152
2017-06-24T03:39:14.135Z,1160
2017-06-24T03:40:26.655Z,1188
2017-06-24T03:41:39.200Z,1276
2017-06-24T03:42:51.768Z,1436
2017-06-24T03:44:04.282Z,1496
2017-06-24T03:45:16.814Z,1524
2017-06-24T03:46:29.376Z,1504
2017-06-24T03:47:42.159Z,1532
2017-06-24T03:48:54.397Z,1560
2017-06-24T03:50:06.631Z,1524
2017-06-24T03:51:19.167Z,1556
2017-06-24T03:52:31.711Z,1580
2017-06-24T03:53:43.948Z,1608
2017-06-24T03:54:56.502Z,1684
2017-06-24T03:56:09.051Z,1728
2017-06-24T03:57:21.292Z,1772
2017-06-24T03:58:34.118Z,1848
2017-06-24T03:59:46.635Z,1872
2017-06-24T04:00:59.174Z,1856
2017-06-24T04:02:11.702Z,1724
2017-06-24T04:03:24.198Z,1656
2017-06-24T04:04:36.722Z,1704
2017-06-24T04:05:49.268Z,1756
2017-06-24T04:07:01.803Z,1828
2017-06-24T04:08:14.061Z,2096
2017-06-24T04:09:26.606Z,2284
2017-06-24T04:10:39.149Z,2184
2017-06-24T04:11:51.669Z,2092
2017-06-24T04:13:04.191Z,1960
2017-06-24T04:14:16.716Z,1916
2017-06-24T04:15:29.250Z,1860
2017-06-24T04:16:41.799Z,1824
2017-06-24T04:17:54.327Z,1952
2017-06-24T04:19:06.870Z,2244
2017-06-24T04:20:19.708Z,2448
2017-06-24T04:21:32.237Z,2584
2017-06-24T04:22:44.483Z,2668
2017-06-24T04:23:56.704Z,2724
2017-06-24T04:25:08.900Z,2884
2017-06-24T04:26:21.152Z,3084
2017-06-24T04:27:33.697Z,3064
2017-06-24T04:28:46.221Z,3040
2017-06-24T04:29:58.435Z,3248
2017-06-24T04:31:10.372Z,3376
2017-06-24T04:32:22.906Z,3464
2017-06-24T04:33:35.446Z,3644
2017-06-24T04:34:47.966Z,3924
2017-06-24T04:35:59.888Z,3992
2017-06-24T04:37:12.105Z,3896
2017-06-24T04:38:24.614Z,3704
2017-06-24T04:39:37.143Z,3388
2017-06-24T04:40:49.397Z,3384
2017-06-24T04:42:01.898Z,3392
2017-06-24T04:43:14.105Z,3500
2017-06-24T04:44:26.614Z,3620
2017-06-24T04:45:39.148Z,3880
2017-06-24T04:46:51.679Z,4292
2017-06-24T04:48:04.515Z,4452
2017-06-24T04:49:17.049Z,4308
2017-06-24T04:50:29.540Z,4552
2017-06-24T04:51:41.760Z,5020
2017-06-24T04:52:54.547Z,5268
2017-06-24T04:54:07.080Z,5264
2017-06-24T04:55:19.597Z,5204
2017-06-24T04:56:32.122Z,5304
2017-06-24T04:57:44.357Z,5408
2017-06-24T04:58:56.603Z,5544
2017-06-24T05:00:08.856Z,5876
2017-06-24T05:01:21.098Z,6164
2017-06-24T05:02:33.027Z,6320
2017-06-24T05:03:45.844Z,6520
2017-06-24T05:04:58.067Z,6620
2017-06-24T05:06:10.291Z,6208
2017-06-24T05:07:22.529Z,6336
2017-06-24T05:08:35.046Z,6296
2017-06-24T05:09:47.599Z,5824
2017-06-24T05:11:00.138Z,5752
2017-06-24T05:12:12.695Z,6076
2017-06-24T05:13:25.216Z,6592
2017-06-24T05:14:37.761Z,6568
2017-06-24T05:15:50.008Z,6328
2017-06-24T05:17:02.224Z,5968
2017-06-24T05:18:14.470Z,5816
2017-06-24T05:19:26.996Z,5676
2017-06-24T05:20:39.537Z,5492
2017-06-24T05:21:52.053Z,5392
2017-06-24T05:23:04.283Z,5516
2017-06-24T05:24:16.825Z,5804
2017-06-24T05:25:29.349Z,5880
2017-06-24T05:26:41.892Z,5800
2017-06-24T05:27:54.429Z,5996
2017-06-24T05:29:06.983Z,6296
2017-06-24T05:30:19.485Z,6132
2017-06-24T05:31:32.025Z,5716
2017-06-24T05:32:44.550Z,5992
2017-06-24T05:33:57.099Z,5948
2017-06-24T05:35:09.341Z,5732
2017-06-24T05:36:21.567Z,5432
2017-06-24T05:37:33.784Z,5752
2017-06-24T05:38:46.046Z,6068
2017-06-24T05:39:58.313Z,7340
2017-06-24T05:41:10.545Z,8100
2017-06-24T05:42:22.785Z,8604
2017-06-24T05:43:35.313Z,9908
2017-06-24T05:44:47.855Z,11392
2017-06-24T05:46:00.379Z,11788
2017-06-24T05:47:13.168Z,10348
2017-06-24T05:48:24.840Z,8064
2017-06-24T05:49:37.355Z,7528
2017-06-24T05:50:49.882Z,9124
2017-06-24T05:52:01.851Z,10736
2017-06-24T05:53:14.397Z,11860
2017-06-24T05:54:26.939Z,14216
2017-06-24T05:55:39.172Z,16740
2017-06-24T05:56:51.717Z,16356
2017-06-24T05:58:04.240Z,16244
2017-06-24T05:59:16.160Z,16956
2017-06-24T06:00:28.694Z,15432
2017-06-24T06:01:41.247Z,13312
2017-06-24T06:02:53.153Z,12516
2017-06-24T06:04:05.676Z,12048
2017-06-24T06:05:17.912Z,11676
2017-06-24T06:06:29.832Z,10556
2017-06-24T06:07:42.327Z,10452
2017-06-24T06:08:54.874Z,10836
2017-06-24T06:10:07.397Z,11312
2017-06-24T06:11:19.040Z,11528
2017-06-24T06:12:31.579Z,9968
2017-06-24T06:13:43.787Z,8696
2017-06-24T06:14:56.320Z,9104
2017-06-24T06:16:08.874Z,11976
2017-06-24T06:17:21.115Z,15192
2017-06-24T06:18:33.361Z,14684
2017-06-24T06:19:45.913Z,12308
2017-06-24T06:20:58.475Z,11376
2017-06-24T06:22:10.732Z,11188
2017-06-24T06:23:23.279Z,11524
2017-06-24T06:24:35.500Z,11772
2017-06-24T06:25:48.044Z,11564
2017-06-24T06:27:00.308Z,11960
2017-06-24T06:28:12.878Z,10648
2017-06-24T06:29:25.456Z,9876
2017-06-24T06:30:37.692Z,10496
2017-06-24T06:31:49.924Z,11524
2017-06-24T06:33:02.163Z,14200
2017-06-24T06:34:14.713Z,17060
2017-06-24T06:35:27.228Z,17404
2017-06-24T06:36:39.454Z,16556
2017-06-24T06:37:51.993Z,15976
2017-06-24T06:39:04.522Z,13816
2017-06-24T06:40:17.019Z,10356
2017-06-24T06:41:29.512Z,8468
2017-06-24T06:42:41.754Z,8936
2017-06-24T06:43:54.310Z,10772
2017-06-24T06:45:06.826Z,13304
2017-06-24T06:46:19.347Z,15000
2017-06-24T06:47:31.871Z,14684
2017-06-24T06:48:44.416Z,13688
2017-06-24T06:49:56.678Z,13004
2017-06-24T06:51:09.184Z,11860
2017-06-24T06:52:21.757Z,10208
2017-06-24T06:53:34.275Z,9804
2017-06-24T06:54:46.216Z,10748
2017-06-24T06:55:58.144Z,12636
2017-06-24T06:57:10.684Z,13388
2017-06-24T06:58:23.209Z,14020
2017-06-24T06:59:35.728Z,15928
2017-06-24T07:00:47.930Z,16668
2017-06-24T07:02:00.169Z,16368
2017-06-24T07:03:12.940Z,15016
2017-06-24T07:04:25.466Z,14308
2017-06-24T07:05:38.039Z,15388
2017-06-24T07:06:50.544Z,15412
2017-06-24T07:08:03.123Z,13820
2017-06-24T07:09:15.639Z,14180
2017-06-24T07:10:27.865Z,17856
2017-06-24T07:11:40.117Z,20256
2017-06-24T07:12:52.653Z,18272
2017-06-24T07:14:04.870Z,15416
2017-06-24T07:15:17.099Z,14524
2017-06-24T07:16:29.349Z,14416
2017-06-24T07:17:41.583Z,13616
2017-06-24T07:18:53.486Z,13568
2017-06-24T07:20:05.726Z,13576
2017-06-24T07:21:18.257Z,14316
2017-06-24T07:22:30.524Z,15164
2017-06-24T07:23:42.426Z,15012
2017-06-24T07:24:54.946Z,16332
2017-06-24T07:26:06.587Z,16852
2017-06-24T07:27:19.133Z,15336
2017-06-24T07:28:31.355Z,16616
2017-06-24T07:29:43.867Z,15944
2017-06-24T07:30:56.097Z,12672
2017-06-24T07:32:08.317Z,11000
2017-06-24T07:33:20.556Z,10700
2017-06-24T07:34:33.089Z,10264
2017-06-24T07:35:45.311Z,9836
2017-06-24T07:36:57.841Z,10004
2017-06-24T07:38:10.092Z,10080
2017-06-24T07:39:22.588Z,9448
2017-06-24T07:40:34.219Z,9096
2017-06-24T07:41:46.734Z,8920
2017-06-24T07:42:59.247Z,9440
2017-06-24T07:44:11.780Z,10268
2017-06-24T07:45:24.026Z,10744
2017-06-24T07:46:36.870Z,10304
2017-06-24T07:47:49.113Z,9548
2017-06-24T07:49:01.316Z,9208
2017-06-24T07:50:13.851Z,10200
2017-06-24T07:51:26.351Z,11720
2017-06-24T07:52:38.594Z,11680
2017-06-24T07:53:51.139Z,10880
2017-06-24T07:55:03.364Z,10720
2017-06-24T07:56:15.914Z,10852
2017-06-24T07:57:28.134Z,10772
2017-06-24T07:58:40.652Z,11580
2017-06-24T07:59:53.174Z,13348
2017-06-24T08:01:05.397Z,15108
2017-06-24T08:02:17.335Z,15364
2017-06-24T08:03:29.264Z,14336
2017-06-24T08:04:41.513Z,13988
2017-06-24T08:05:54.048Z,13980
2017-06-24T08:07:05.979Z,13920
2017-06-24T08:08:18.212Z,12864
2017-06-24T08:09:30.767Z,12076
2017-06-24T08:10:42.986Z,11816
2017-06-24T08:11:55.486Z,12772
2017-06-24T08:13:08.034Z,12000
2017-06-24T08:14:20.550Z,10472
2017-06-24T08:15:32.780Z,10356
2017-06-24T08:16:45.336Z,12184
2017-06-24T08:17:57.864Z,12924
2017-06-24T08:19:10.035Z,13876
2017-06-24T08:20:22.587Z,14732
2017-06-24T08:21:35.128Z,14928
2017-06-24T08:22:47.675Z,15084
2017-06-24T08:24:00.194Z,15220
2017-06-24T08:25:12.736Z,14804
2017-06-24T08:26:24.711Z,14072
2017-06-24T08:27:37.264Z,14024
2017-06-24T08:28:49.176Z,14576
2017-06-24T08:30:01.096Z,14592
2017-06-24T08:31:13.648Z,14112
2017-06-24T08:32:25.881Z,13536
2017-06-24T08:33:38.414Z,13512
2017-06-24T08:34:50.926Z,15572
2017-06-24T08:36:03.454Z,19232
2017-06-24T08:37:16.005Z,21824
2017-06-24T08:38:28.238Z,21888
2017-06-24T08:39:40.764Z,20640
2017-06-24T08:40:53.556Z,18912
2017-06-24T08:42:06.107Z,18336
2017-06-24T08:43:18.643Z,19552
2017-06-24T08:44:30.871Z,19520
2017-06-24T08:45:43.393Z,19296
2017-06-24T08:46:55.944Z,20384
2017-06-24T08:48:08.156Z,22176
2017-06-24T08:49:20.676Z,22656
2017-06-24T08:50:33.197Z,21760
2017-06-24T08:51:45.427Z,20768
2017-06-24T08:52:57.669Z,20224
2017-06-24T08:54:09.943Z,21600
2017-06-24T08:55:22.189Z,24256
2017-06-24T08:56:34.759Z,23648
2017-06-24T08:57:47.302Z,22752
2017-06-24T08:58:59.866Z,22656
2017-06-24T09:00:12.390Z,22624
2017-06-24T09:01:24.956Z,21696
2017-06-24T09:02:37.765Z,20480
2017-06-24T09:03:49.706Z,19840
2017-06-24T09:05:02.273Z,17888
2017-06-24T09:06:14.823Z,15720
2017-06-24T09:07:27.047Z,16004
2017-06-24T09:08:39.615Z,16848
2017-06-24T09:09:52.131Z,18304
2017-06-24T09:11:04.660Z,18752
2017-06-24T09:12:17.230Z,18656
2017-06-24T09:13:29.778Z,19200
2017-06-24T09:14:42.030Z,20128
2017-06-24T09:15:54.312Z,20768
2017-06-24T09:17:06.839Z,20288
2017-06-24T09:18:19.385Z,21152
2017-06-24T09:19:31.931Z,21472
2017-06-24T09:20:44.506Z,21632
2017-06-24T09:21:57.041Z,24096
2017-06-24T09:23:09.587Z,27008
2017-06-24T09:24:22.136Z,23360
2017-06-24T09:25:34.358Z,20160
2017-06-24T09:26:46.906Z,16852
2017-06-24T09:27:59.150Z,14960
2017-06-24T09:29:11.676Z,15816
2017-06-24T09:30:23.917Z,18144
2017-06-24T09:31:36.437Z,18720
2017-06-24T09:32:48.976Z,21344
2017-06-24T09:34:01.529Z,24480
2017-06-24T09:35:14.096Z,24448
2017-06-24T09:36:26.323Z,20864
2017-06-24T09:37:38.535Z,18624
2017-06-24T09:38:51.041Z,19584
2017-06-24T09:40:03.285Z,21376
2017-06-24T09:41:15.830Z,21504
2017-06-24T09:42:28.376Z,24064
2017-06-24T09:43:40.867Z,24576
2017-06-24T09:44:53.397Z,21280
2017-06-24T09:46:05.942Z,16868
2017-06-24T09:47:18.487Z,14912
2017-06-24T09:48:31.034Z,14292
2017-06-24T09:49:43.296Z,14428
2017-06-24T09:50:55.849Z,15348
2017-06-24T09:52:08.342Z,15716
2017-06-24T09:53:20.859Z,17792
2017-06-24T09:54:33.388Z,20544
2017-06-24T09:55:45.608Z,20672
2017-06-24T09:56:58.401Z,20416
2017-06-24T09:58:10.651Z,19968
2017-06-24T09:59:23.168Z,19104
2017-06-24T10:00:35.689Z,17696
2017-06-24T10:01:47.939Z,16232
2017-06-24T10:03:00.515Z,16232
2017-06-24T10:04:13.079Z,16508
2017-06-24T10:05:25.308Z,16456
2017-06-24T10:06:37.844Z,16732
2017-06-24T10:07:50.393Z,17164
2017-06-24T10:09:02.931Z,17952
2017-06-24T10:10:15.437Z,17856
2017-06-24T10:11:27.956Z,16632
2017-06-24T10:12:40.501Z,16144
2017-06-24T10:13:52.748Z,16528
2017-06-24T10:15:05.290Z,16904
2017-06-24T10:16:17.815Z,17052
2017-06-24T10:17:30.361Z,17792
2017-06-24T10:18:43.160Z,19360
2017-06-24T10:19:55.702Z,20608
2017-06-24T10:21:08.223Z,19488
2017-06-24T10:22:20.158Z,17856
2017-06-24T10:23:32.411Z,17276
2017-06-24T10:24:44.957Z,18560
2017-06-24T10:25:57.498Z,20096
2017-06-24T10:27:09.723Z,21280
2017-06-24T10:28:21.922Z,24160
2017-06-24T10:29:34.465Z,26176
2017-06-24T10:30:46.686Z,23936
2017-06-24T10:31:58.935Z,23360
2017-06-24T10:33:11.470Z,23264
2017-06-24T10:34:24.017Z,21280
2017-06-24T10:35:36.574Z,21824
2017-06-24T10:36:48.812Z,22624
2017-06-24T10:38:01.362Z,21056
2017-06-24T10:39:13.900Z,20128
2017-06-24T10:40:26.747Z,19776
2017-06-24T10:41:39.003Z,20224
2017-06-24T10:42:51.550Z,20736
2017-06-24T10:44:03.795Z,19328
2017-06-24T10:45:16.356Z,17856
2017-06-24T10:46:28.908Z,16076
2017-06-24T10:47:41.451Z,14412
2017-06-24T10:48:53.996Z,12192
2017-06-24T10:50:06.239Z,10792
2017-06-24T10:51:18.796Z,11344
2017-06-24T10:52:31.355Z,12256
2017-06-24T10:53:43.583Z,13520
2017-06-24T10:54:55.800Z,15096
2017-06-24T10:56:08.043Z,15588
2017-06-24T10:57:20.301Z,13656
2017-06-24T10:58:32.242Z,12416
2017-06-24T10:59:44.785Z,11284
2017-06-24T11:00:57.334Z,10276
2017-06-24T11:02:10.101Z,8540
2017-06-24T11:03:22.651Z,7388
2017-06-24T11:04:34.897Z,7768
2017-06-24T11:05:47.421Z,8468
2017-06-24T11:06:59.669Z,7932
2017-06-24T11:08:12.239Z,7224
2017-06-24T11:09:24.805Z,7172
2017-06-24T11:10:37.303Z,6896
2017-06-24T11:11:49.550Z,6032
2017-06-24T11:13:02.068Z,5668
2017-06-24T11:14:14.617Z,9660
2017-06-24T11:15:27.159Z,15208
2017-06-24T11:16:39.086Z,18016
2017-06-24T11:17:51.648Z,19072
2017-06-24T11:19:03.892Z,20416
2017-06-24T11:20:16.397Z,22368
2017-06-24T11:21:28.958Z,24928
2017-06-24T11:22:41.188Z,26848
2017-06-24T11:23:53.662Z,25184
2017-06-24T11:25:05.603Z,19328
2017-06-24T11:26:18.152Z,13660
2017-06-24T11:27:30.715Z,10824
2017-06-24T11:28:42.968Z,11036
2017-06-24T11:29:55.511Z,10912
2017-06-24T11:31:07.737Z,9356
2017-06-24T11:32:20.278Z,9352
2017-06-24T11:33:32.816Z,9932
2017-06-24T11:34:45.070Z,9640
2017-06-24T11:35:57.316Z,7996
2017-06-24T11:37:09.865Z,7860
2017-06-24T11:38:22.408Z,7996
2017-06-24T11:39:34.936Z,8908
2017-06-24T11:40:47.522Z,11872
2017-06-24T11:41:58.869Z,16304
2017-06-24T11:43:11.091Z,22944
2017-06-24T11:44:23.633Z,24960
2017-06-24T11:45:36.177Z,20768
2017-06-24T11:46:48.729Z,18432
2017-06-24T11:48:00.385Z,17060
2017-06-24T11:49:12.913Z,17728
2017-06-24T11:50:25.487Z,20864
2017-06-24T11:51:37.991Z,22048
2017-06-24T11:52:50.239Z,21760
2017-06-24T11:54:02.480Z,21376
2017-06-24T11:55:14.730Z,23072
2017-06-24T11:56:27.278Z,26496
2017-06-24T11:57:39.785Z,28320
2017-06-24T11:58:52.058Z,28192
2017-06-24T12:00:04.004Z,26880
2017-06-24T12:01:16.547Z,25568
2017-06-24T12:02:28.786Z,23232
2017-06-24T12:03:41.297Z,19648
2017-06-24T12:04:53.496Z,16852
2017-06-24T12:06:06.059Z,15508
2017-06-24T12:07:18.619Z,15464
2017-06-24T12:08:31.174Z,15964
2017-06-24T12:09:43.726Z,19296
2017-06-24T12:10:55.973Z,21984
2017-06-24T12:12:08.211Z,23648
2017-06-24T12:13:20.743Z,21728
2017-06-24T12:14:33.288Z,21536
2017-06-24T12:15:45.852Z,25088
2017-06-24T12:16:58.083Z,27168
2017-06-24T12:18:10.919Z,29280
2017-06-24T12:19:23.462Z,28576
2017-06-24T12:20:35.667Z,30272
2017-06-24T12:21:47.911Z,31488
2017-06-24T12:23:00.450Z,32448
2017-06-24T12:24:12.955Z,37440
2017-06-24T12:25:25.476Z,37888
2017-06-24T12:26:37.711Z,34688
2017-06-24T12:27:50.241Z,33120
2017-06-24T12:29:01.868Z,32320
2017-06-24T12:30:14.450Z,31584
2017-06-24T12:31:26.728Z,33952
2017-06-24T12:32:39.254Z,31712
2017-06-24T12:33:51.228Z,30272
2017-06-24T12:35:03.445Z,31520
2017-06-24T12:36:15.987Z,33664
2017-06-24T12:37:28.533Z,35328
2017-06-24T12:38:40.754Z,38048
2017-06-24T12:39:53.306Z,38400
2017-06-24T12:41:05.848Z,41664
2017-06-24T12:42:18.403Z,43744
2017-06-24T12:43:30.941Z,47456
2017-06-24T12:44:43.488Z,63552
2017-06-24T12:45:55.733Z,50016
2017-06-24T12:47:08.275Z,81728
2017-06-24T12:48:20.802Z,62624
2017-06-24T12:49:33.017Z,42592
2017-06-24T12:50:45.213Z,42688
2017-06-24T12:51:57.762Z,48768
2017-06-24T12:53:10.309Z,46848
2017-06-24T12:54:22.567Z,46336
2017-06-24T12:55:35.125Z,38176
2017-06-24T12:56:47.687Z,34624
2017-06-24T12:57:59.684Z,33216
2017-06-24T12:59:11.934Z,31488
2017-06-24T13:00:24.482Z,31936
2017-06-24T13:01:37.254Z,32896
2017-06-24T13:02:49.506Z,31328
2017-06-24T13:04:02.060Z,35744
2017-06-24T13:05:14.618Z,39488
2017-06-24T13:06:26.906Z,33824
2017-06-24T13:07:39.456Z,32032
2017-06-24T13:08:51.704Z,33472
2017-06-24T13:10:04.250Z,34368
2017-06-24T13:11:16.836Z,36192
2017-06-24T13:12:29.389Z,35936
2017-06-24T13:13:41.913Z,29760
2017-06-24T13:14:54.461Z,32128
2017-06-24T13:16:06.728Z,33600
2017-06-24T13:17:18.952Z,32544
2017-06-24T13:18:30.911Z,32352
2017-06-24T13:19:42.868Z,30368
2017-06-24T13:20:54.811Z,32608
2017-06-24T13:22:07.331Z,36544
2017-06-24T13:23:19.877Z,32096
2017-06-24T13:24:32.424Z,30432
2017-06-24T13:25:44.977Z,28864
2017-06-24T13:26:57.550Z,34016
2017-06-24T13:28:10.107Z,34624
2017-06-24T13:29:22.660Z,32608
2017-06-24T13:30:35.202Z,29024
2017-06-24T13:31:47.717Z,28896
2017-06-24T13:33:00.270Z,30464
2017-06-24T13:34:12.833Z,28416
2017-06-24T13:35:25.092Z,26816
2017-06-24T13:36:37.037Z,27392
2017-06-24T13:37:49.281Z,28384
2017-06-24T13:39:01.216Z,28480
2017-06-24T13:40:13.488Z,27648
2017-06-24T13:41:26.041Z,26944
2017-06-24T13:42:38.562Z,25120
2017-06-24T13:43:50.783Z,25664
2017-06-24T13:45:03.647Z,25632
2017-06-24T13:46:15.625Z,32256
2017-06-24T13:47:28.191Z,30624
2017-06-24T13:48:40.463Z,29216
2017-06-24T13:49:52.987Z,29088
2017-06-24T13:51:05.509Z,33344
2017-06-24T13:52:18.050Z,35904
2017-06-24T13:53:30.578Z,30016
2017-06-24T13:54:43.138Z,30432
2017-06-24T13:55:54.796Z,30208
2017-06-24T13:57:07.342Z,30624
2017-06-24T13:58:19.590Z,27584
2017-06-24T13:59:32.133Z,29664
2017-06-24T14:00:44.379Z,31392
2017-06-24T14:01:56.625Z,30016
2017-06-24T14:03:09.188Z,30624
2017-06-24T14:04:21.443Z,34240
2017-06-24T14:05:33.710Z,32416
2017-06-24T14:06:46.255Z,31808
2017-06-24T14:07:58.809Z,30368
2017-06-24T14:09:11.050Z,30336
2017-06-24T14:10:23.593Z,35296
2017-06-24T14:11:36.189Z,28864
2017-06-24T14:12:48.731Z,23904
2017-06-24T14:14:01.285Z,21120
2017-06-24T14:15:13.869Z,18912
2017-06-24T14:16:26.450Z,20832
2017-06-24T14:17:38.999Z,24096
2017-06-24T14:18:51.268Z,22752
2017-06-24T14:20:03.486Z,22912
2017-06-24T14:21:16.002Z,23616
2017-06-24T14:22:27.953Z,21888
2017-06-24T14:23:40.497Z,22976
2017-06-24T14:24:52.742Z,22912
2017-06-24T14:26:05.317Z,23456
2017-06-24T14:27:17.553Z,22720
2017-06-24T14:28:29.835Z,20736
2017-06-24T14:29:42.379Z,19936
2017-06-24T14:30:54.645Z,18016
2017-06-24T14:32:07.212Z,15668
2017-06-24T14:33:19.732Z,14376
2017-06-24T14:34:32.258Z,13564
2017-06-24T14:35:44.482Z,13144
2017-06-24T14:36:56.396Z,12588
2017-06-24T14:38:08.949Z,12028
2017-06-24T14:39:21.745Z,12172
2017-06-24T14:40:33.987Z,13428
2017-06-24T14:41:46.513Z,13544
2017-06-24T14:42:59.037Z,13204
2017-06-24T14:44:11.600Z,13436
2017-06-24T14:45:24.106Z,13652
2017-06-24T14:46:36.345Z,14528
2017-06-24T14:47:48.901Z,15440
2017-06-24T14:49:00.847Z,15996
2017-06-24T14:50:13.409Z,15948
2017-06-24T14:51:25.650Z,16884
2017-06-24T14:52:38.181Z,17760
2017-06-24T14:53:50.726Z,18144
2017-06-24T14:55:03.270Z,16932
2017-06-24T14:56:15.813Z,17364
2017-06-24T14:57:28.337Z,18080
2017-06-24T14:58:40.573Z,18496
2017-06-24T14:59:53.128Z,18816
2017-06-24T15:01:05.968Z,18496
2017-06-24T15:02:18.192Z,16892
2017-06-24T15:03:30.741Z,14792
2017-06-24T15:04:42.984Z,13188
2017-06-24T15:05:55.522Z,13228
2017-06-24T15:07:07.772Z,13932
2017-06-24T15:08:20.301Z,13604
2017-06-24T15:09:32.522Z,12828
2017-06-24T15:10:45.064Z,12052
2017-06-24T15:11:57.289Z,12028
2017-06-24T15:13:09.826Z,12596
2017-06-24T15:14:22.360Z,13272
2017-06-24T15:15:34.589Z,16812
2017-06-24T15:16:46.821Z,19520
2017-06-24T15:17:59.064Z,18720
2017-06-24T15:19:11.311Z,19360
2017-06-24T15:20:23.231Z,19040
2017-06-24T15:21:35.769Z,19552
2017-06-24T15:22:48.523Z,20992
2017-06-24T15:24:01.069Z,20352
2017-06-24T15:25:13.593Z,17136
2017-06-24T15:26:25.842Z,15156
2017-06-24T15:27:38.381Z,14640
2017-06-24T15:28:50.911Z,13760
2017-06-24T15:30:03.429Z,13112
2017-06-24T15:31:15.669Z,12364
2017-06-24T15:32:28.208Z,12484
2017-06-24T15:33:40.733Z,13352
2017-06-24T15:34:53.274Z,15248
2017-06-24T15:36:05.848Z,15472
2017-06-24T15:37:18.092Z,12636
2017-06-24T15:38:30.641Z,13008
2017-06-24T15:39:42.866Z,14596
2017-06-24T15:40:55.404Z,15556
2017-06-24T15:42:07.633Z,14984
2017-06-24T15:43:20.132Z,14524
2017-06-24T15:44:32.349Z,13020
2017-06-24T15:45:44.899Z,14872
2017-06-24T15:46:57.141Z,17600
2017-06-24T15:48:09.671Z,19648
2017-06-24T15:49:22.237Z,18848
2017-06-24T15:50:34.784Z,17012
2017-06-24T15:51:47.325Z,17920
2017-06-24T15:52:59.538Z,16280
2017-06-24T15:54:11.787Z,13712
2017-06-24T15:55:24.317Z,10972
2017-06-24T15:56:36.863Z,9376
2017-06-24T15:57:49.429Z,9832
2017-06-24T15:59:01.652Z,10632
2017-06-24T16:00:14.207Z,11148
2017-06-24T16:01:26.468Z,12376